sensor_id;sensor_type;location;lat;lon;timestamp;P1;durP1;ratioP1;P2;durP2;ratioP2
34212;SDS011;20477;51.390;8.102;2023-03-25T00:02:20;2.05;;;0.90;;
34212;SDS011;20477;51.390;8.102;2023-03-25T00:04:50;5.93;;;1.02;;
34212;SDS011;20477;51.390;8.102;2023-03-25T00:07:19;9.18;;;1.10;;
34212;SDS011;20477;51.390;8.102;2023-03-25T00:09:48;2.88;;;0.80;;
34212;SDS011;20477;51.390;8.102;2023-03-25T00:12:16;0.80;;;0.70;;
34212;SDS011;20477;51.390;8.102;2023-03-25T00:14:45;2.38;;;0.95;;
34212;SDS011;20477;51.390;8.102;2023-03-25T00:17:20;1.35;;;0.80;;
34212;SDS011;20477;51.390;8.102;2023-03-25T00:19:50;2.83;;;0.85;;
34212;SDS011;20477;51.390;8.102;2023-03-25T00:22:18;2.58;;;0.95;;
34212;SDS011;20477;51.390;8.102;2023-03-25T00:24:47;5.57;;;1.10;;
34212;SDS011;20477;51.390;8.102;2023-03-25T00:27:16;1.60;;;1.00;;
34212;SDS011;20477;51.390;8.102;2023-03-25T00:29:45;2.88;;;0.90;;
34212;SDS011;20477;51.390;8.102;2023-03-25T00:32:13;2.03;;;0.90;;
34212;SDS011;20477;51.390;8.102;2023-03-25T00:34:42;7.65;;;1.25;;
34212;SDS011;20477;51.390;8.102;2023-03-25T00:37:14;4.32;;;1.10;;
34212;SDS011;20477;51.390;8.102;2023-03-25T00:39:43;3.63;;;1.33;;
34212;SDS011;20477;51.390;8.102;2023-03-25T00:42:14;4.00;;;1.13;;
34212;SDS011;20477;51.390;8.102;2023-03-25T00:44:42;1.58;;;0.80;;
34212;SDS011;20477;51.390;8.102;2023-03-25T00:47:10;2.58;;;1.17;;
34212;SDS011;20477;51.390;8.102;2023-03-25T00:49:43;3.50;;;1.10;;
34212;SDS011;20477;51.390;8.102;2023-03-25T00:52:11;3.67;;;1.10;;
34212;SDS011;20477;51.390;8.102;2023-03-25T00:54:41;6.45;;;1.33;;
34212;SDS011;20477;51.390;8.102;2023-03-25T00:57:11;4.47;;;1.23;;
34212;SDS011;20477;51.390;8.102;2023-03-25T00:59:39;7.00;;;1.33;;
34212;SDS011;20477;51.390;8.102;2023-03-25T01:02:07;2.60;;;1.08;;
34212;SDS011;20477;51.390;8.102;2023-03-25T01:04:35;5.70;;;1.05;;
34212;SDS011;20477;51.390;8.102;2023-03-25T01:07:07;3.20;;;1.00;;
34212;SDS011;20477;51.390;8.102;2023-03-25T01:09:37;2.03;;;1.00;;
34212;SDS011;20477;51.390;8.102;2023-03-25T01:12:06;4.25;;;1.08;;
34212;SDS011;20477;51.390;8.102;2023-03-25T01:14:34;3.17;;;1.23;;
34212;SDS011;20477;51.390;8.102;2023-03-25T01:17:03;2.50;;;1.15;;
34212;SDS011;20477;51.390;8.102;2023-03-25T01:19:31;6.47;;;1.40;;
34212;SDS011;20477;51.390;8.102;2023-03-25T01:21:59;4.80;;;1.33;;
34212;SDS011;20477;51.390;8.102;2023-03-25T01:24:27;4.53;;;1.77;;
34212;SDS011;20477;51.390;8.102;2023-03-25T01:26:57;5.22;;;1.50;;
34212;SDS011;20477;51.390;8.102;2023-03-25T01:29:25;3.70;;;1.40;;
34212;SDS011;20477;51.390;8.102;2023-03-25T01:31:53;5.72;;;1.85;;
34212;SDS011;20477;51.390;8.102;2023-03-25T01:34:21;5.75;;;1.45;;
34212;SDS011;20477;51.390;8.102;2023-03-25T01:36:50;8.40;;;2.03;;
34212;SDS011;20477;51.390;8.102;2023-03-25T01:39:21;4.07;;;1.30;;
34212;SDS011;20477;51.390;8.102;2023-03-25T01:41:49;7.15;;;1.63;;
34212;SDS011;20477;51.390;8.102;2023-03-25T01:47:27;6.80;;;1.63;;
34212;SDS011;20477;51.390;8.102;2023-03-25T01:49:55;4.57;;;1.63;;
34212;SDS011;20477;51.390;8.102;2023-03-25T01:52:24;6.30;;;1.20;;
34212;SDS011;20477;51.390;8.102;2023-03-25T01:54:55;4.05;;;1.50;;
34212;SDS011;20477;51.390;8.102;2023-03-25T01:57:24;5.22;;;1.80;;
34212;SDS011;20477;51.390;8.102;2023-03-25T01:59:52;2.72;;;1.13;;
34212;SDS011;20477;51.390;8.102;2023-03-25T02:02:21;7.53;;;1.75;;
34212;SDS011;20477;51.390;8.102;2023-03-25T02:04:52;6.10;;;1.35;;
34212;SDS011;20477;51.390;8.102;2023-03-25T02:07:27;6.47;;;2.55;;
34212;SDS011;20477;51.390;8.102;2023-03-25T02:09:58;9.20;;;2.67;;
34212;SDS011;20477;51.390;8.102;2023-03-25T02:12:28;5.43;;;1.48;;
34212;SDS011;20477;51.390;8.102;2023-03-25T02:14:56;8.30;;;2.13;;
34212;SDS011;20477;51.390;8.102;2023-03-25T02:17:28;8.10;;;1.65;;
34212;SDS011;20477;51.390;8.102;2023-03-25T02:20:17;8.90;;;1.80;;
34212;SDS011;20477;51.390;8.102;2023-03-25T02:23:04;8.25;;;1.40;;
34212;SDS011;20477;51.390;8.102;2023-03-25T02:26:07;6.68;;;1.77;;
34212;SDS011;20477;51.390;8.102;2023-03-25T02:28:53;5.82;;;1.75;;
34212;SDS011;20477;51.390;8.102;2023-03-25T02:31:25;7.85;;;1.40;;
34212;SDS011;20477;51.390;8.102;2023-03-25T02:34:08;6.18;;;1.90;;
34212;SDS011;20477;51.390;8.102;2023-03-25T02:36:56;5.18;;;1.30;;
34212;SDS011;20477;51.390;8.102;2023-03-25T02:39:36;7.88;;;2.10;;
34212;SDS011;20477;51.390;8.102;2023-03-25T02:44:39;6.63;;;1.50;;
34212;SDS011;20477;51.390;8.102;2023-03-25T02:47:11;9.38;;;1.88;;
34212;SDS011;20477;51.390;8.102;2023-03-25T02:52:12;6.82;;;2.35;;
34212;SDS011;20477;51.390;8.102;2023-03-25T02:54:44;3.97;;;1.30;;
34212;SDS011;20477;51.390;8.102;2023-03-25T02:57:14;5.05;;;1.60;;
34212;SDS011;20477;51.390;8.102;2023-03-25T02:59:45;6.53;;;1.50;;
34212;SDS011;20477;51.390;8.102;2023-03-25T03:02:14;8.10;;;1.67;;
34212;SDS011;20477;51.390;8.102;2023-03-25T03:04:46;6.75;;;1.40;;
34212;SDS011;20477;51.390;8.102;2023-03-25T03:07:18;6.72;;;1.40;;
34212;SDS011;20477;51.390;8.102;2023-03-25T03:09:52;6.07;;;1.70;;
34212;SDS011;20477;51.390;8.102;2023-03-25T03:12:30;5.57;;;1.40;;
34212;SDS011;20477;51.390;8.102;2023-03-25T03:15:11;5.30;;;1.65;;
34212;SDS011;20477;51.390;8.102;2023-03-25T03:17:52;8.93;;;1.85;;
34212;SDS011;20477;51.390;8.102;2023-03-25T03:20:31;13.77;;;1.77;;
34212;SDS011;20477;51.390;8.102;2023-03-25T03:23:02;8.02;;;1.63;;
34212;SDS011;20477;51.390;8.102;2023-03-25T03:25:34;2.40;;;1.00;;
34212;SDS011;20477;51.390;8.102;2023-03-25T03:28:05;8.55;;;1.40;;
34212;SDS011;20477;51.390;8.102;2023-03-25T03:30:38;4.13;;;1.58;;
34212;SDS011;20477;51.390;8.102;2023-03-25T03:33:10;4.32;;;1.17;;
34212;SDS011;20477;51.390;8.102;2023-03-25T03:35:43;8.65;;;1.58;;
34212;SDS011;20477;51.390;8.102;2023-03-25T03:38:18;6.00;;;1.35;;
34212;SDS011;20477;51.390;8.102;2023-03-25T03:40:50;10.82;;;1.77;;
34212;SDS011;20477;51.390;8.102;2023-03-25T03:43:21;3.33;;;1.25;;
34212;SDS011;20477;51.390;8.102;2023-03-25T03:45:52;2.40;;;1.25;;
34212;SDS011;20477;51.390;8.102;2023-03-25T03:48:24;3.30;;;1.33;;
34212;SDS011;20477;51.390;8.102;2023-03-25T03:50:55;5.50;;;1.38;;
34212;SDS011;20477;51.390;8.102;2023-03-25T03:53:28;5.97;;;1.10;;
34212;SDS011;20477;51.390;8.102;2023-03-25T03:56:00;4.85;;;1.00;;
34212;SDS011;20477;51.390;8.102;2023-03-25T03:58:30;6.47;;;1.77;;
34212;SDS011;20477;51.390;8.102;2023-03-25T04:01:02;6.93;;;1.80;;
34212;SDS011;20477;51.390;8.102;2023-03-25T04:03:35;3.42;;;1.48;;
34212;SDS011;20477;51.390;8.102;2023-03-25T04:06:08;7.28;;;1.70;;
34212;SDS011;20477;51.390;8.102;2023-03-25T04:08:43;3.58;;;1.30;;
34212;SDS011;20477;51.390;8.102;2023-03-25T04:11:19;5.13;;;1.20;;
34212;SDS011;20477;51.390;8.102;2023-03-25T04:13:50;3.85;;;1.35;;
34212;SDS011;20477;51.390;8.102;2023-03-25T04:16:19;4.93;;;1.52;;
34212;SDS011;20477;51.390;8.102;2023-03-25T04:18:47;2.80;;;1.30;;
34212;SDS011;20477;51.390;8.102;2023-03-25T04:21:18;4.55;;;1.65;;
34212;SDS011;20477;51.390;8.102;2023-03-25T04:23:46;5.45;;;1.88;;
34212;SDS011;20477;51.390;8.102;2023-03-25T04:26:16;5.45;;;1.70;;
34212;SDS011;20477;51.390;8.102;2023-03-25T04:28:47;4.40;;;1.90;;
34212;SDS011;20477;51.390;8.102;2023-03-25T04:31:15;6.75;;;1.90;;
34212;SDS011;20477;51.390;8.102;2023-03-25T04:33:43;7.32;;;2.38;;
34212;SDS011;20477;51.390;8.102;2023-03-25T04:36:14;4.57;;;2.08;;
34212;SDS011;20477;51.390;8.102;2023-03-25T04:38:42;8.63;;;2.13;;
34212;SDS011;20477;51.390;8.102;2023-03-25T04:41:11;4.22;;;1.80;;
34212;SDS011;20477;51.390;8.102;2023-03-25T04:43:42;7.45;;;2.28;;
34212;SDS011;20477;51.390;8.102;2023-03-25T04:46:11;11.20;;;1.98;;
34212;SDS011;20477;51.390;8.102;2023-03-25T04:48:41;6.72;;;2.45;;
34212;SDS011;20477;51.390;8.102;2023-03-25T04:51:10;5.68;;;2.20;;
34212;SDS011;20477;51.390;8.102;2023-03-25T04:53:39;5.43;;;2.33;;
34212;SDS011;20477;51.390;8.102;2023-03-25T04:56:09;8.15;;;2.33;;
34212;SDS011;20477;51.390;8.102;2023-03-25T04:58:43;10.30;;;1.63;;
34212;SDS011;20477;51.390;8.102;2023-03-25T05:01:14;5.47;;;2.00;;
34212;SDS011;20477;51.390;8.102;2023-03-25T05:03:47;4.50;;;1.75;;
34212;SDS011;20477;51.390;8.102;2023-03-25T05:06:16;9.10;;;2.65;;
34212;SDS011;20477;51.390;8.102;2023-03-25T05:08:44;3.65;;;2.13;;
34212;SDS011;20477;51.390;8.102;2023-03-25T05:11:12;9.10;;;2.53;;
34212;SDS011;20477;51.390;8.102;2023-03-25T05:13:40;7.13;;;2.67;;
34212;SDS011;20477;51.390;8.102;2023-03-25T05:16:10;7.72;;;1.98;;
34212;SDS011;20477;51.390;8.102;2023-03-25T05:18:38;5.35;;;2.15;;
34212;SDS011;20477;51.390;8.102;2023-03-25T05:21:06;5.35;;;2.17;;
34212;SDS011;20477;51.390;8.102;2023-03-25T05:23:34;5.70;;;2.40;;
34212;SDS011;20477;51.390;8.102;2023-03-25T05:26:02;5.28;;;1.92;;
34212;SDS011;20477;51.390;8.102;2023-03-25T05:28:31;5.35;;;2.05;;
34212;SDS011;20477;51.390;8.102;2023-03-25T05:31:01;13.63;;;2.35;;
34212;SDS011;20477;51.390;8.102;2023-03-25T05:33:35;9.10;;;2.92;;
34212;SDS011;20477;51.390;8.102;2023-03-25T05:36:08;8.60;;;2.28;;
34212;SDS011;20477;51.390;8.102;2023-03-25T05:38:37;10.40;;;1.92;;
34212;SDS011;20477;51.390;8.102;2023-03-25T05:41:06;6.57;;;2.08;;
34212;SDS011;20477;51.390;8.102;2023-03-25T05:43:36;11.82;;;2.50;;
34212;SDS011;20477;51.390;8.102;2023-03-25T05:46:04;10.10;;;2.40;;
34212;SDS011;20477;51.390;8.102;2023-03-25T05:48:33;6.88;;;1.88;;
34212;SDS011;20477;51.390;8.102;2023-03-25T05:51:02;5.18;;;1.80;;
34212;SDS011;20477;51.390;8.102;2023-03-25T05:53:35;3.25;;;1.90;;
34212;SDS011;20477;51.390;8.102;2023-03-25T05:56:03;11.52;;;1.85;;
34212;SDS011;20477;51.390;8.102;2023-03-25T05:58:32;6.80;;;1.90;;
34212;SDS011;20477;51.390;8.102;2023-03-25T06:01:00;7.65;;;1.92;;
34212;SDS011;20477;51.390;8.102;2023-03-25T06:03:29;8.98;;;1.63;;
34212;SDS011;20477;51.390;8.102;2023-03-25T06:06:01;14.77;;;1.80;;
34212;SDS011;20477;51.390;8.102;2023-03-25T06:08:31;4.97;;;1.25;;
34212;SDS011;20477;51.390;8.102;2023-03-25T06:11:00;4.25;;;1.80;;
34212;SDS011;20477;51.390;8.102;2023-03-25T06:13:29;7.15;;;1.52;;
34212;SDS011;20477;51.390;8.102;2023-03-25T06:15:59;6.78;;;1.55;;
34212;SDS011;20477;51.390;8.102;2023-03-25T06:18:28;3.78;;;1.45;;
34212;SDS011;20477;51.390;8.102;2023-03-25T06:20:56;5.38;;;1.75;;
34212;SDS011;20477;51.390;8.102;2023-03-25T06:23:26;6.45;;;1.98;;
34212;SDS011;20477;51.390;8.102;2023-03-25T06:25:54;13.82;;;2.05;;
34212;SDS011;20477;51.390;8.102;2023-03-25T06:28:23;4.82;;;1.50;;
34212;SDS011;20477;51.390;8.102;2023-03-25T06:30:51;6.30;;;1.70;;
34212;SDS011;20477;51.390;8.102;2023-03-25T06:33:20;6.63;;;1.65;;
34212;SDS011;20477;51.390;8.102;2023-03-25T06:36:08;4.47;;;1.83;;
34212;SDS011;20477;51.390;8.102;2023-03-25T06:38:38;3.90;;;1.48;;
34212;SDS011;20477;51.390;8.102;2023-03-25T06:41:07;7.45;;;1.73;;
34212;SDS011;20477;51.390;8.102;2023-03-25T06:43:35;7.28;;;1.85;;
34212;SDS011;20477;51.390;8.102;2023-03-25T06:46:03;5.65;;;1.67;;
34212;SDS011;20477;51.390;8.102;2023-03-25T06:48:32;7.15;;;1.63;;
34212;SDS011;20477;51.390;8.102;2023-03-25T06:51:00;2.95;;;1.00;;
34212;SDS011;20477;51.390;8.102;2023-03-25T06:53:29;7.07;;;1.63;;
34212;SDS011;20477;51.390;8.102;2023-03-25T06:55:59;4.40;;;1.40;;
34212;SDS011;20477;51.390;8.102;2023-03-25T06:58:27;6.05;;;2.05;;
34212;SDS011;20477;51.390;8.102;2023-03-25T07:01:00;5.65;;;1.30;;
34212;SDS011;20477;51.390;8.102;2023-03-25T07:03:33;1.67;;;1.02;;
34212;SDS011;20477;51.390;8.102;2023-03-25T07:06:02;7.63;;;1.30;;
34212;SDS011;20477;51.390;8.102;2023-03-25T07:08:31;9.57;;;1.90;;
34212;SDS011;20477;51.390;8.102;2023-03-25T07:11:02;9.93;;;2.08;;
34212;SDS011;20477;51.390;8.102;2023-03-25T07:13:31;7.95;;;1.60;;
34212;SDS011;20477;51.390;8.102;2023-03-25T07:15:59;4.47;;;1.73;;
34212;SDS011;20477;51.390;8.102;2023-03-25T07:18:28;6.07;;;1.60;;
34212;SDS011;20477;51.390;8.102;2023-03-25T07:20:56;5.22;;;1.42;;
34212;SDS011;20477;51.390;8.102;2023-03-25T07:23:24;6.88;;;1.50;;
34212;SDS011;20477;51.390;8.102;2023-03-25T07:25:53;7.88;;;2.10;;
34212;SDS011;20477;51.390;8.102;2023-03-25T07:28:23;8.13;;;1.85;;
34212;SDS011;20477;51.390;8.102;2023-03-25T07:30:51;5.88;;;1.60;;
34212;SDS011;20477;51.390;8.102;2023-03-25T07:33:19;5.65;;;1.70;;
34212;SDS011;20477;51.390;8.102;2023-03-25T07:35:47;9.57;;;2.20;;
34212;SDS011;20477;51.390;8.102;2023-03-25T07:38:16;2.40;;;1.02;;
34212;SDS011;20477;51.390;8.102;2023-03-25T07:40:44;3.05;;;1.20;;
34212;SDS011;20477;51.390;8.102;2023-03-25T07:43:15;5.20;;;1.23;;
34212;SDS011;20477;51.390;8.102;2023-03-25T07:45:45;7.13;;;1.25;;
34212;SDS011;20477;51.390;8.102;2023-03-25T07:48:13;9.55;;;2.08;;
34212;SDS011;20477;51.390;8.102;2023-03-25T07:50:42;3.55;;;1.00;;
34212;SDS011;20477;51.390;8.102;2023-03-25T07:53:10;6.45;;;1.13;;
34212;SDS011;20477;51.390;8.102;2023-03-25T07:55:39;5.82;;;1.58;;
34212;SDS011;20477;51.390;8.102;2023-03-25T07:58:07;3.42;;;1.23;;
34212;SDS011;20477;51.390;8.102;2023-03-25T08:00:35;2.47;;;1.00;;
34212;SDS011;20477;51.390;8.102;2023-03-25T08:03:04;6.43;;;1.73;;
34212;SDS011;20477;51.390;8.102;2023-03-25T08:05:32;3.70;;;1.10;;
34212;SDS011;20477;51.390;8.102;2023-03-25T08:08:03;2.55;;;1.00;;
34212;SDS011;20477;51.390;8.102;2023-03-25T08:10:32;6.72;;;1.10;;
34212;SDS011;20477;51.390;8.102;2023-03-25T08:13:01;8.25;;;1.83;;
34212;SDS011;20477;51.390;8.102;2023-03-25T08:15:29;4.63;;;1.27;;
34212;SDS011;20477;51.390;8.102;2023-03-25T08:17:57;5.15;;;1.85;;
34212;SDS011;20477;51.390;8.102;2023-03-25T08:20:27;3.08;;;1.38;;
34212;SDS011;20477;51.390;8.102;2023-03-25T08:22:55;5.65;;;1.55;;
34212;SDS011;20477;51.390;8.102;2023-03-25T08:25:24;4.57;;;1.33;;
34212;SDS011;20477;51.390;8.102;2023-03-25T08:27:53;6.68;;;1.38;;
34212;SDS011;20477;51.390;8.102;2023-03-25T08:30:21;9.98;;;1.60;;
34212;SDS011;20477;51.390;8.102;2023-03-25T08:32:49;8.30;;;1.63;;
34212;SDS011;20477;51.390;8.102;2023-03-25T08:35:21;8.50;;;1.83;;
34212;SDS011;20477;51.390;8.102;2023-03-25T08:37:51;10.23;;;2.55;;
34212;SDS011;20477;51.390;8.102;2023-03-25T08:40:19;9.07;;;2.17;;
34212;SDS011;20477;51.390;8.102;2023-03-25T08:42:48;7.70;;;2.10;;
34212;SDS011;20477;51.390;8.102;2023-03-25T08:45:16;7.15;;;1.65;;
34212;SDS011;20477;51.390;8.102;2023-03-25T08:47:44;14.88;;;2.33;;
34212;SDS011;20477;51.390;8.102;2023-03-25T08:50:12;9.38;;;2.03;;
34212;SDS011;20477;51.390;8.102;2023-03-25T08:52:41;6.82;;;2.00;;
34212;SDS011;20477;51.390;8.102;2023-03-25T08:55:10;8.10;;;2.15;;
34212;SDS011;20477;51.390;8.102;2023-03-25T08:57:43;14.40;;;2.50;;
34212;SDS011;20477;51.390;8.102;2023-03-25T09:00:11;7.47;;;1.95;;
34212;SDS011;20477;51.390;8.102;2023-03-25T09:02:40;11.57;;;2.80;;
34212;SDS011;20477;51.390;8.102;2023-03-25T09:05:09;12.50;;;2.80;;
34212;SDS011;20477;51.390;8.102;2023-03-25T09:07:38;7.30;;;2.47;;
34212;SDS011;20477;51.390;8.102;2023-03-25T09:10:06;11.70;;;2.83;;
34212;SDS011;20477;51.390;8.102;2023-03-25T09:12:39;7.18;;;2.28;;
34212;SDS011;20477;51.390;8.102;2023-03-25T09:15:07;13.77;;;3.05;;
34212;SDS011;20477;51.390;8.102;2023-03-25T09:17:37;11.60;;;3.25;;
34212;SDS011;20477;51.390;8.102;2023-03-25T09:20:06;13.20;;;3.00;;
34212;SDS011;20477;51.390;8.102;2023-03-25T09:22:37;15.05;;;3.20;;
34212;SDS011;20477;51.390;8.102;2023-03-25T09:25:06;10.88;;;2.88;;
34212;SDS011;20477;51.390;8.102;2023-03-25T09:27:34;7.80;;;2.53;;
34212;SDS011;20477;51.390;8.102;2023-03-25T09:30:05;13.10;;;2.97;;
34212;SDS011;20477;51.390;8.102;2023-03-25T09:32:34;13.88;;;2.72;;
34212;SDS011;20477;51.390;8.102;2023-03-25T09:35:02;9.80;;;2.88;;
34212;SDS011;20477;51.390;8.102;2023-03-25T09:37:31;7.70;;;1.85;;
34212;SDS011;20477;51.390;8.102;2023-03-25T09:39:59;10.80;;;3.58;;
34212;SDS011;20477;51.390;8.102;2023-03-25T09:42:29;10.70;;;2.67;;
34212;SDS011;20477;51.390;8.102;2023-03-25T09:45:05;13.23;;;2.90;;
34212;SDS011;20477;51.390;8.102;2023-03-25T09:47:41;12.27;;;3.67;;
34212;SDS011;20477;51.390;8.102;2023-03-25T09:50:13;10.40;;;2.60;;
34212;SDS011;20477;51.390;8.102;2023-03-25T09:52:45;19.83;;;3.55;;
34212;SDS011;20477;51.390;8.102;2023-03-25T09:55:19;7.57;;;2.88;;
34212;SDS011;20477;51.390;8.102;2023-03-25T09:57:52;8.57;;;2.78;;
34212;SDS011;20477;51.390;8.102;2023-03-25T10:00:24;12.65;;;3.63;;
34212;SDS011;20477;51.390;8.102;2023-03-25T10:02:55;14.00;;;2.60;;
34212;SDS011;20477;51.390;8.102;2023-03-25T10:05:37;12.63;;;2.78;;
34212;SDS011;20477;51.390;8.102;2023-03-25T10:08:12;10.77;;;3.10;;
34212;SDS011;20477;51.390;8.102;2023-03-25T10:10:46;10.65;;;3.20;;
34212;SDS011;20477;51.390;8.102;2023-03-25T10:13:20;14.43;;;3.15;;
34212;SDS011;20477;51.390;8.102;2023-03-25T10:15:55;6.93;;;2.42;;
34212;SDS011;20477;51.390;8.102;2023-03-25T10:18:35;16.25;;;3.03;;
34212;SDS011;20477;51.390;8.102;2023-03-25T10:23:40;9.50;;;2.30;;
34212;SDS011;20477;51.390;8.102;2023-03-25T10:26:10;13.93;;;2.58;;
34212;SDS011;20477;51.390;8.102;2023-03-25T10:28:43;12.27;;;2.95;;
34212;SDS011;20477;51.390;8.102;2023-03-25T10:31:17;9.15;;;3.13;;
34212;SDS011;20477;51.390;8.102;2023-03-25T10:33:50;9.35;;;2.63;;
34212;SDS011;20477;51.390;8.102;2023-03-25T10:36:24;11.60;;;3.25;;
34212;SDS011;20477;51.390;8.102;2023-03-25T10:38:56;10.48;;;3.00;;
34212;SDS011;20477;51.390;8.102;2023-03-25T10:41:28;12.68;;;3.30;;
34212;SDS011;20477;51.390;8.102;2023-03-25T10:43:57;9.23;;;2.85;;
34212;SDS011;20477;51.390;8.102;2023-03-25T10:46:29;10.45;;;2.75;;
34212;SDS011;20477;51.390;8.102;2023-03-25T10:49:02;11.95;;;2.60;;
34212;SDS011;20477;51.390;8.102;2023-03-25T10:51:31;12.40;;;2.63;;
34212;SDS011;20477;51.390;8.102;2023-03-25T10:54:00;11.50;;;2.33;;
34212;SDS011;20477;51.390;8.102;2023-03-25T10:56:29;21.73;;;3.83;;
34212;SDS011;20477;51.390;8.102;2023-03-25T10:58:59;15.52;;;4.18;;
34212;SDS011;20477;51.390;8.102;2023-03-25T11:01:35;12.40;;;3.42;;
34212;SDS011;20477;51.390;8.102;2023-03-25T11:06:35;15.52;;;3.58;;
34212;SDS011;20477;51.390;8.102;2023-03-25T11:09:09;10.38;;;3.00;;
34212;SDS011;20477;51.390;8.102;2023-03-25T11:11:44;13.90;;;3.15;;
34212;SDS011;20477;51.390;8.102;2023-03-25T11:14:13;16.27;;;3.92;;
34212;SDS011;20477;51.390;8.102;2023-03-25T11:16:45;8.55;;;2.72;;
34212;SDS011;20477;51.390;8.102;2023-03-25T11:21:45;16.80;;;3.20;;
34212;SDS011;20477;51.390;8.102;2023-03-25T11:24:14;8.55;;;2.67;;
34212;SDS011;20477;51.390;8.102;2023-03-25T11:26:45;12.13;;;3.42;;
34212;SDS011;20477;51.390;8.102;2023-03-25T11:29:17;6.95;;;2.28;;
34212;SDS011;20477;51.390;8.102;2023-03-25T11:31:56;7.20;;;2.10;;
34212;SDS011;20477;51.390;8.102;2023-03-25T11:34:25;14.63;;;3.30;;
34212;SDS011;20477;51.390;8.102;2023-03-25T11:36:54;9.50;;;2.28;;
34212;SDS011;20477;51.390;8.102;2023-03-25T11:39:28;7.32;;;2.35;;
34212;SDS011;20477;51.390;8.102;2023-03-25T11:44:33;11.43;;;2.05;;
34212;SDS011;20477;51.390;8.102;2023-03-25T11:47:03;8.25;;;2.78;;
34212;SDS011;20477;51.390;8.102;2023-03-25T11:49:33;14.32;;;2.83;;
34212;SDS011;20477;51.390;8.102;2023-03-25T11:52:04;10.27;;;2.88;;
34212;SDS011;20477;51.390;8.102;2023-03-25T11:54:35;8.25;;;2.25;;
34212;SDS011;20477;51.390;8.102;2023-03-25T11:57:04;10.73;;;2.25;;
34212;SDS011;20477;51.390;8.102;2023-03-25T11:59:38;16.75;;;2.78;;
34212;SDS011;20477;51.390;8.102;2023-03-25T12:02:19;12.20;;;3.10;;
34212;SDS011;20477;51.390;8.102;2023-03-25T12:04:56;8.77;;;2.33;;
34212;SDS011;20477;51.390;8.102;2023-03-25T12:07:25;12.77;;;2.47;;
34212;SDS011;20477;51.390;8.102;2023-03-25T12:09:53;21.63;;;4.60;;
34212;SDS011;20477;51.390;8.102;2023-03-25T12:12:29;9.15;;;3.20;;
34212;SDS011;20477;51.390;8.102;2023-03-25T12:15:10;11.73;;;2.35;;
34212;SDS011;20477;51.390;8.102;2023-03-25T12:17:53;16.83;;;2.97;;
34212;SDS011;20477;51.390;8.102;2023-03-25T12:20:27;9.15;;;2.67;;
34212;SDS011;20477;51.390;8.102;2023-03-25T12:22:59;10.05;;;2.78;;
34212;SDS011;20477;51.390;8.102;2023-03-25T12:25:31;11.98;;;3.78;;
34212;SDS011;20477;51.390;8.102;2023-03-25T12:28:11;15.15;;;2.45;;
34212;SDS011;20477;51.390;8.102;2023-03-25T12:30:52;11.10;;;2.50;;
34212;SDS011;20477;51.390;8.102;2023-03-25T12:33:30;11.90;;;2.58;;
34212;SDS011;20477;51.390;8.102;2023-03-25T12:36:14;9.90;;;2.72;;
34212;SDS011;20477;51.390;8.102;2023-03-25T12:38:48;12.55;;;3.25;;
34212;SDS011;20477;51.390;8.102;2023-03-25T12:41:25;18.95;;;2.95;;
34212;SDS011;20477;51.390;8.102;2023-03-25T12:44:05;10.50;;;2.95;;
34212;SDS011;20477;51.390;8.102;2023-03-25T12:46:47;18.35;;;2.80;;
34212;SDS011;20477;51.390;8.102;2023-03-25T12:49:30;15.45;;;2.90;;
34212;SDS011;20477;51.390;8.102;2023-03-25T12:52:10;9.05;;;3.03;;
34212;SDS011;20477;51.390;8.102;2023-03-25T12:57:18;11.60;;;2.38;;
34212;SDS011;20477;51.390;8.102;2023-03-25T13:02:59;12.38;;;3.13;;
34212;SDS011;20477;51.390;8.102;2023-03-25T13:05:40;8.52;;;2.22;;
34212;SDS011;20477;51.390;8.102;2023-03-25T13:08:15;9.15;;;2.25;;
34212;SDS011;20477;51.390;8.102;2023-03-25T13:10:46;6.68;;;2.28;;
34212;SDS011;20477;51.390;8.102;2023-03-25T13:13:16;7.90;;;2.08;;
34212;SDS011;20477;51.390;8.102;2023-03-25T13:15:47;14.35;;;2.28;;
34212;SDS011;20477;51.390;8.102;2023-03-25T13:18:16;8.80;;;1.85;;
34212;SDS011;20477;51.390;8.102;2023-03-25T13:20:48;8.90;;;2.47;;
34212;SDS011;20477;51.390;8.102;2023-03-25T13:23:21;7.70;;;2.05;;
34212;SDS011;20477;51.390;8.102;2023-03-25T13:25:50;8.23;;;2.05;;
34212;SDS011;20477;51.390;8.102;2023-03-25T13:28:24;8.63;;;2.17;;
34212;SDS011;20477;51.390;8.102;2023-03-25T13:30:54;4.03;;;1.55;;
34212;SDS011;20477;51.390;8.102;2023-03-25T13:33:23;9.35;;;1.65;;
34212;SDS011;20477;51.390;8.102;2023-03-25T13:35:55;5.18;;;1.67;;
34212;SDS011;20477;51.390;8.102;2023-03-25T13:38:27;8.05;;;1.60;;
34212;SDS011;20477;51.390;8.102;2023-03-25T13:41:04;8.18;;;1.60;;
34212;SDS011;20477;51.390;8.102;2023-03-25T13:43:38;8.85;;;1.88;;
34212;SDS011;20477;51.390;8.102;2023-03-25T13:46:09;7.15;;;2.22;;
34212;SDS011;20477;51.390;8.102;2023-03-25T13:48:40;9.95;;;2.83;;
34212;SDS011;20477;51.390;8.102;2023-03-25T13:51:14;12.57;;;2.47;;
34212;SDS011;20477;51.390;8.102;2023-03-25T13:53:43;11.07;;;3.33;;
34212;SDS011;20477;51.390;8.102;2023-03-25T13:59:27;13.38;;;2.78;;
34212;SDS011;20477;51.390;8.102;2023-03-25T14:02:27;14.10;;;3.00;;
34212;SDS011;20477;51.390;8.102;2023-03-25T14:08:02;7.57;;;2.17;;
34212;SDS011;20477;51.390;8.102;2023-03-25T14:10:46;10.00;;;3.58;;
34212;SDS011;20477;51.390;8.102;2023-03-25T14:13:19;18.33;;;2.83;;
34212;SDS011;20477;51.390;8.102;2023-03-25T14:15:52;12.43;;;2.63;;
34212;SDS011;20477;51.390;8.102;2023-03-25T14:18:24;10.10;;;2.25;;
34212;SDS011;20477;51.390;8.102;2023-03-25T14:20:53;19.17;;;3.13;;
34212;SDS011;20477;51.390;8.102;2023-03-25T14:23:25;13.65;;;3.30;;
34212;SDS011;20477;51.390;8.102;2023-03-25T14:25:57;11.45;;;2.55;;
34212;SDS011;20477;51.390;8.102;2023-03-25T14:28:31;11.80;;;3.10;;
34212;SDS011;20477;51.390;8.102;2023-03-25T14:31:06;12.60;;;3.20;;
34212;SDS011;20477;51.390;8.102;2023-03-25T14:39:45;5.45;;;1.58;;
34212;SDS011;20477;51.390;8.102;2023-03-25T14:42:23;7.68;;;1.23;;
34212;SDS011;20477;51.390;8.102;2023-03-25T14:48:04;4.47;;;0.95;;
34212;SDS011;20477;51.390;8.102;2023-03-25T14:50:53;8.60;;;1.05;;
34212;SDS011;20477;51.390;8.102;2023-03-25T14:53:40;6.20;;;1.13;;
34212;SDS011;20477;51.390;8.102;2023-03-25T14:56:20;3.83;;;0.93;;
34212;SDS011;20477;51.390;8.102;2023-03-25T14:58:51;6.47;;;1.27;;
34212;SDS011;20477;51.390;8.102;2023-03-25T15:01:22;3.25;;;1.02;;
34212;SDS011;20477;51.390;8.102;2023-03-25T15:04:09;4.32;;;0.88;;
34212;SDS011;20477;51.390;8.102;2023-03-25T15:06:41;3.67;;;1.02;;
34212;SDS011;20477;51.390;8.102;2023-03-25T15:09:10;4.03;;;1.10;;
34212;SDS011;20477;51.390;8.102;2023-03-25T15:11:42;11.20;;;1.38;;
34212;SDS011;20477;51.390;8.102;2023-03-25T15:14:12;1.67;;;0.80;;
34212;SDS011;20477;51.390;8.102;2023-03-25T15:26:01;3.75;;;1.38;;
34212;SDS011;20477;51.390;8.102;2023-03-25T15:28:38;3.58;;;1.30;;
34212;SDS011;20477;51.390;8.102;2023-03-25T15:31:16;8.10;;;2.22;;
34212;SDS011;20477;51.390;8.102;2023-03-25T15:33:56;4.10;;;1.65;;
34212;SDS011;20477;51.390;8.102;2023-03-25T15:36:37;7.22;;;1.90;;
34212;SDS011;20477;51.390;8.102;2023-03-25T15:39:18;7.55;;;2.35;;
34212;SDS011;20477;51.390;8.102;2023-03-25T15:41:59;5.13;;;2.58;;
34212;SDS011;20477;51.390;8.102;2023-03-25T15:44:49;6.47;;;2.10;;
34212;SDS011;20477;51.390;8.102;2023-03-25T15:50:55;14.70;;;3.78;;
34212;SDS011;20477;51.390;8.102;2023-03-25T15:53:36;6.60;;;2.50;;
34212;SDS011;20477;51.390;8.102;2023-03-25T15:56:12;11.90;;;3.58;;
34212;SDS011;20477;51.390;8.102;2023-03-25T15:58:42;10.13;;;3.05;;
34212;SDS011;20477;51.390;8.102;2023-03-25T16:01:18;11.85;;;3.15;;
34212;SDS011;20477;51.390;8.102;2023-03-25T16:03:52;11.27;;;2.30;;